createdAt,value
2023-09-27T00:01:56.674Z,15.89
2023-09-27T00:04:59.472Z,15.84
2023-09-27T00:08:02.019Z,15.77
2023-09-27T00:11:04.462Z,15.80
2023-09-27T00:14:07.075Z,15.65
2023-09-27T00:17:09.551Z,15.73
2023-09-27T00:20:15.865Z,15.78
2023-09-27T00:23:18.355Z,15.75
2023-09-27T00:26:20.874Z,15.66
2023-09-27T00:29:24.438Z,15.55
2023-09-27T00:32:26.974Z,15.58
2023-09-27T00:35:29.532Z,15.53
2023-09-27T00:38:32.714Z,15.62
2023-09-27T00:41:35.316Z,15.59
2023-09-27T00:44:38.141Z,15.56
2023-09-27T00:47:41.680Z,15.44
2023-09-27T00:50:44.081Z,15.46
2023-09-27T00:53:50.473Z,15.55
2023-09-27T00:56:53.587Z,15.59
2023-09-27T00:59:58.761Z,15.53
2023-09-27T01:03:03.660Z,15.49
2023-09-27T01:06:06.398Z,15.50
2023-09-27T01:09:08.878Z,15.43
2023-09-27T01:12:11.730Z,15.44
2023-09-27T01:15:14.249Z,15.33
2023-09-27T01:18:16.815Z,15.35
2023-09-27T01:21:20.318Z,15.29
2023-09-27T01:24:23.176Z,15.23
2023-09-27T01:27:25.900Z,15.28
2023-09-27T01:30:34.940Z,15.31
2023-09-27T01:33:38.355Z,15.23
2023-09-27T01:36:40.743Z,15.12
2023-09-27T01:39:43.234Z,14.99
2023-09-27T01:42:45.791Z,15.02
2023-09-27T01:45:48.309Z,15.00
2023-09-27T01:48:52.371Z,15.06
2023-09-27T01:51:55.703Z,15.07
2023-09-27T01:54:58.188Z,15.00
2023-09-27T01:58:01.849Z,14.96
2023-09-27T02:01:05.042Z,14.96
2023-09-27T02:04:07.906Z,14.93
2023-09-27T02:07:10.333Z,14.87
2023-09-27T02:10:13.122Z,14.88
2023-09-27T02:13:15.598Z,14.89
2023-09-27T02:16:18.050Z,14.85
2023-09-27T02:19:20.542Z,14.79
2023-09-27T02:22:24.203Z,14.64
2023-09-27T02:25:27.026Z,14.71
2023-09-27T02:28:29.665Z,14.70
2023-09-27T02:31:32.878Z,14.69
2023-09-27T02:34:35.954Z,14.67
2023-09-27T02:37:40.755Z,14.65
2023-09-27T02:40:43.496Z,14.68
2023-09-27T02:43:46.079Z,14.67
2023-09-27T02:46:48.495Z,14.66
2023-09-27T02:49:50.962Z,14.66
2023-09-27T02:52:53.401Z,14.56
2023-09-27T02:55:55.858Z,14.57
2023-09-27T02:58:58.611Z,14.51
2023-09-27T03:02:01.161Z,14.52
2023-09-27T03:05:08.457Z,14.47
2023-09-27T03:08:11.465Z,14.44
2023-09-27T03:11:14.112Z,14.42
2023-09-27T03:14:16.529Z,14.33
2023-09-27T03:17:19.043Z,14.31
2023-09-27T03:20:22.650Z,14.31
2023-09-27T03:23:26.878Z,14.23
2023-09-27T03:26:29.474Z,14.17
2023-09-27T03:29:31.950Z,14.14
2023-09-27T03:32:35.969Z,14.20
2023-09-27T03:35:38.481Z,14.11
2023-09-27T03:38:42.012Z,14.20
2023-09-27T03:41:44.465Z,14.17
2023-09-27T03:44:48.347Z,14.18
2023-09-27T03:47:51.253Z,14.18
2023-09-27T03:50:56.129Z,14.11
2023-09-27T03:53:58.598Z,14.06
2023-09-27T03:57:01.123Z,13.95
2023-09-27T04:00:08.111Z,13.99
2023-09-27T04:03:15.247Z,13.93
2023-09-27T04:06:17.912Z,14.01
2023-09-27T04:09:20.773Z,13.98
2023-09-27T04:12:23.355Z,13.90
2023-09-27T04:15:25.945Z,13.90
2023-09-27T04:18:28.944Z,13.94
2023-09-27T04:21:31.374Z,13.90
2023-09-27T04:24:33.880Z,13.83
2023-09-27T04:27:36.343Z,13.75
2023-09-27T04:30:38.737Z,13.69
2023-09-27T04:33:45.289Z,13.77
2023-09-27T04:36:48.716Z,13.76
2023-09-27T04:39:51.298Z,13.71
2023-09-27T04:42:53.757Z,13.76
2023-09-27T04:45:56.249Z,13.79
2023-09-27T04:48:58.696Z,13.86
2023-09-27T04:52:01.066Z,13.82
2023-09-27T04:55:03.835Z,13.83
2023-09-27T04:58:07.267Z,13.82
2023-09-27T05:01:11.249Z,13.90
2023-09-27T05:04:13.769Z,13.93
2023-09-27T05:07:21.055Z,14.07
2023-09-27T05:10:23.670Z,14.13
2023-09-27T05:13:26.202Z,14.40
2023-09-27T05:16:28.548Z,14.45
2023-09-27T05:19:31.183Z,14.51
2023-09-27T05:22:35.012Z,14.68
2023-09-27T05:25:37.845Z,14.73
2023-09-27T05:28:41.118Z,14.85
2023-09-27T05:31:47.054Z,14.93
2023-09-27T05:34:49.490Z,15.12
2023-09-27T05:37:51.920Z,15.14
2023-09-27T05:40:54.375Z,15.50
2023-09-27T05:43:56.918Z,15.48
2023-09-27T05:46:59.479Z,15.61
2023-09-27T05:50:02.126Z,15.57
2023-09-27T05:53:04.631Z,15.73
2023-09-27T05:56:07.107Z,15.75
2023-09-27T05:59:10.426Z,15.88
2023-09-27T06:02:18.063Z,16.01
2023-09-27T06:05:20.936Z,16.08
2023-09-27T06:08:24.149Z,16.32
2023-09-27T06:11:26.959Z,16.39
2023-09-27T06:14:29.498Z,16.51
2023-09-27T06:17:32.297Z,16.66
2023-09-27T06:20:34.851Z,16.80
2023-09-27T06:23:37.369Z,17.00
2023-09-27T06:26:42.351Z,17.63
2023-09-27T06:29:45.048Z,18.12
2023-09-27T06:32:48.170Z,18.60
2023-09-27T06:35:50.724Z,18.59
2023-09-27T06:38:53.488Z,18.97
2023-09-27T06:41:56.422Z,19.12
2023-09-27T06:44:59.957Z,19.21
2023-09-27T06:48:02.480Z,19.11
2023-09-27T06:51:06.962Z,19.22
2023-09-27T06:54:09.551Z,19.17
2023-09-27T06:57:12.016Z,19.36
2023-09-27T07:00:25.418Z,19.49
2023-09-27T07:03:34.637Z,19.87
2023-09-27T07:06:37.259Z,19.94
2023-09-27T07:09:41.858Z,20.37
2023-09-27T07:12:44.430Z,20.39
2023-09-27T07:15:47.473Z,20.84
2023-09-27T07:18:50.458Z,20.78
2023-09-27T07:21:53.096Z,21.30
2023-09-27T07:24:55.591Z,21.72
2023-09-27T07:27:58.130Z,22.16
2023-09-27T07:31:00.612Z,22.39
2023-09-27T07:34:03.099Z,23.15
2023-09-27T07:37:06.093Z,23.53
2023-09-27T07:40:13.864Z,24.07
2023-09-27T07:43:16.788Z,24.70
2023-09-27T07:46:20.577Z,24.79
2023-09-27T07:49:24.246Z,25.06
2023-09-27T07:52:26.851Z,25.35
2023-09-27T07:55:33.500Z,25.73
2023-09-27T07:58:43.080Z,26.00
2023-09-27T08:01:45.917Z,26.34
2023-09-27T08:04:49.637Z,26.86
2023-09-27T08:07:52.581Z,27.50
2023-09-27T08:10:55.161Z,28.02
2023-09-27T08:13:57.539Z,28.45
2023-09-27T08:17:00.037Z,29.33
2023-09-27T08:20:13.504Z,29.89
2023-09-27T08:23:16.053Z,30.37
2023-09-27T08:26:18.470Z,30.58
2023-09-27T08:29:22.784Z,30.71
2023-09-27T08:32:25.362Z,31.08
2023-09-27T08:35:28.766Z,31.22
2023-09-27T08:38:31.729Z,31.59
2023-09-27T08:41:34.701Z,31.92
2023-09-27T08:44:37.602Z,32.05
2023-09-27T08:47:43.326Z,32.32
2023-09-27T08:50:46.137Z,32.67
2023-09-27T08:53:48.566Z,32.89
2023-09-27T08:56:52.627Z,32.70
2023-09-27T08:59:56.488Z,32.92
2023-09-27T09:03:02.274Z,32.49
2023-09-27T09:06:11.964Z,32.99
2023-09-27T09:09:15.149Z,33.17
2023-09-27T09:12:18.800Z,33.19
2023-09-27T09:15:49.935Z,33.64
2023-09-27T09:18:56.559Z,33.64
2023-09-27T09:22:01.584Z,33.88
2023-09-27T09:25:04.313Z,33.75
2023-09-27T09:28:10.832Z,34.29
2023-09-27T09:31:27.882Z,34.12
2023-09-27T09:34:32.760Z,33.85
2023-09-27T09:37:36.435Z,33.77
2023-09-27T09:40:58.170Z,34.45
2023-09-27T09:44:17.648Z,35.16
2023-09-27T09:47:20.784Z,35.04
2023-09-27T09:50:23.427Z,35.26
2023-09-27T09:53:27.523Z,33.35
2023-09-27T09:56:36.280Z,34.72
2023-09-27T09:59:52.336Z,34.59
2023-09-27T10:03:03.834Z,34.58
2023-09-27T10:06:07.770Z,35.27
2023-09-27T10:09:16.195Z,35.35
2023-09-27T10:12:22.507Z,35.30
2023-09-27T10:15:27.019Z,35.43
2023-09-27T10:18:31.815Z,35.50
2023-09-27T10:21:35.826Z,33.81
2023-09-27T10:24:43.133Z,34.25
2023-09-27T10:28:01.020Z,35.21
2023-09-27T10:31:07.418Z,34.27
2023-09-27T10:34:29.791Z,34.72
2023-09-27T10:38:01.103Z,35.11
2023-09-27T10:41:04.506Z,33.25
2023-09-27T10:44:07.286Z,32.66
2023-09-27T10:47:10.289Z,33.73
2023-09-27T10:50:12.920Z,33.88
2023-09-27T10:53:15.988Z,34.01
2023-09-27T10:56:19.260Z,34.17
2023-09-27T10:59:22.812Z,34.37
2023-09-27T11:02:30.759Z,34.12
2023-09-27T11:05:33.291Z,33.89
2023-09-27T11:08:35.872Z,33.84
2023-09-27T11:11:38.395Z,32.76
2023-09-27T11:14:48.930Z,32.43
2023-09-27T11:17:57.587Z,33.28
2023-09-27T11:21:12.253Z,33.53
2023-09-27T11:24:16.621Z,33.15
2023-09-27T11:27:22.515Z,33.96
2023-09-27T11:30:26.810Z,33.82
2023-09-27T11:33:34.870Z,34.27
2023-09-27T11:36:48.116Z,34.25
2023-09-27T11:39:52.306Z,33.98
2023-09-27T11:42:54.745Z,34.08
2023-09-27T11:45:58.823Z,34.24
2023-09-27T11:49:09.550Z,34.07
2023-09-27T11:52:12.543Z,33.03
2023-09-27T11:55:15.894Z,32.82
2023-09-27T11:58:18.257Z,32.35
2023-09-27T12:01:23.365Z,33.51
2023-09-27T12:04:26.087Z,33.35
2023-09-27T12:07:29.008Z,33.13
2023-09-27T12:10:32.158Z,32.69
2023-09-27T12:13:34.577Z,32.30
2023-09-27T12:16:37.054Z,33.47
2023-09-27T12:19:40.020Z,34.01
2023-09-27T12:22:42.923Z,33.92
2023-09-27T12:25:45.365Z,34.02
2023-09-27T12:28:47.995Z,34.40
2023-09-27T12:31:50.790Z,33.92
2023-09-27T12:34:53.712Z,33.48
2023-09-27T12:37:56.353Z,33.66
2023-09-27T12:41:01.651Z,33.88
2023-09-27T12:44:04.574Z,33.78
2023-09-27T12:47:07.081Z,33.47
2023-09-27T12:50:09.760Z,33.60
2023-09-27T12:53:12.332Z,33.49
2023-09-27T12:56:16.110Z,33.56
2023-09-27T12:59:19.931Z,33.77
2023-09-27T13:02:22.489Z,33.72
2023-09-27T13:05:25.061Z,33.07
2023-09-27T13:08:27.734Z,33.03
2023-09-27T13:11:30.415Z,32.10
2023-09-27T13:14:32.955Z,31.14
2023-09-27T13:17:35.549Z,31.55
2023-09-27T13:20:38.312Z,31.70
2023-09-27T13:23:42.458Z,32.26
2023-09-27T13:26:45.093Z,32.69
2023-09-27T13:29:47.590Z,32.60
2023-09-27T13:32:50.167Z,32.01
2023-09-27T13:35:52.985Z,32.39
2023-09-27T13:38:55.735Z,32.17
2023-09-27T13:41:58.484Z,32.22
2023-09-27T13:45:01.081Z,32.06
2023-09-27T13:48:04.864Z,32.05
2023-09-27T13:51:07.456Z,32.01
2023-09-27T13:54:09.870Z,31.95
2023-09-27T13:57:12.271Z,31.54
2023-09-27T14:00:16.881Z,31.21
2023-09-27T14:03:19.526Z,30.89
2023-09-27T14:06:22.274Z,31.23
2023-09-27T14:09:24.812Z,31.10
2023-09-27T14:12:27.295Z,31.10
2023-09-27T14:15:29.874Z,30.47
2023-09-27T14:18:32.460Z,30.02
2023-09-27T14:21:35.641Z,30.18
2023-09-27T14:24:38.279Z,29.78
2023-09-27T14:27:40.776Z,30.09
2023-09-27T14:30:43.185Z,30.11
2023-09-27T14:33:45.712Z,30.02
2023-09-27T14:36:48.386Z,30.10
2023-09-27T14:39:50.958Z,29.95
2023-09-27T14:42:53.306Z,29.66
2023-09-27T14:45:55.902Z,29.53
2023-09-27T14:48:58.507Z,29.54
2023-09-27T14:52:01.006Z,29.48
2023-09-27T14:55:04.358Z,29.38
2023-09-27T14:58:07.157Z,29.01
2023-09-27T15:01:09.679Z,28.92
2023-09-27T15:04:14.188Z,28.82
2023-09-27T15:07:18.086Z,28.59
2023-09-27T15:10:21.654Z,28.59
2023-09-27T15:13:24.280Z,28.04
2023-09-27T15:16:26.934Z,28.13
2023-09-27T15:19:29.532Z,27.96
2023-09-27T15:22:32.061Z,27.91
2023-09-27T15:25:34.464Z,27.72
2023-09-27T15:28:36.958Z,27.61
2023-09-27T15:31:39.527Z,27.38
2023-09-27T15:34:42.164Z,27.26
2023-09-27T15:37:54.629Z,26.99
2023-09-27T15:40:57.391Z,26.74
2023-09-27T15:43:59.909Z,26.47
2023-09-27T15:47:02.417Z,26.18
2023-09-27T15:50:05.743Z,25.86
2023-09-27T15:53:08.155Z,25.75
2023-09-27T15:56:11.881Z,25.51
2023-09-27T15:59:14.420Z,25.48
2023-09-27T16:02:16.927Z,25.29
2023-09-27T16:05:19.490Z,25.04
2023-09-27T16:08:24.402Z,24.84
2023-09-27T16:11:31.028Z,24.59
2023-09-27T16:14:33.538Z,24.41
2023-09-27T16:17:37.719Z,24.15
2023-09-27T16:20:43.548Z,23.94
2023-09-27T16:23:45.976Z,23.72
2023-09-27T16:26:49.660Z,23.54
2023-09-27T16:29:52.110Z,23.30
2023-09-27T16:32:55.756Z,23.15
2023-09-27T16:35:58.806Z,22.97
2023-09-27T16:39:04.014Z,22.89
2023-09-27T16:42:06.393Z,22.78
2023-09-27T16:45:09.577Z,22.63
2023-09-27T16:48:12.025Z,22.47
2023-09-27T16:51:14.617Z,22.30
2023-09-27T16:54:17.138Z,22.19
2023-09-27T16:57:21.657Z,22.11
2023-09-27T17:00:24.187Z,21.99
2023-09-27T17:03:26.731Z,21.81
2023-09-27T17:06:29.169Z,21.75
2023-09-27T17:09:31.725Z,21.65
2023-09-27T17:12:34.260Z,21.51
2023-09-27T17:15:36.964Z,21.41
2023-09-27T17:18:39.381Z,21.27
2023-09-27T17:21:42.086Z,21.13
2023-09-27T17:24:44.846Z,20.99
2023-09-27T17:27:47.614Z,20.80
2023-09-27T17:30:52.135Z,20.65
2023-09-27T17:33:55.666Z,20.48
2023-09-27T17:36:58.391Z,20.32
2023-09-27T17:40:07.851Z,20.16
2023-09-27T17:43:10.423Z,20.00
2023-09-27T17:46:23.506Z,19.83
2023-09-27T17:49:27.512Z,19.75
2023-09-27T17:52:30.048Z,19.56
2023-09-27T17:55:32.825Z,19.64
2023-09-27T17:58:36.480Z,19.69
2023-09-27T18:01:39.285Z,19.62
2023-09-27T18:04:42.014Z,19.55
2023-09-27T18:07:45.292Z,19.61
2023-09-27T18:10:51.295Z,19.58
2023-09-27T18:13:54.111Z,19.43
2023-09-27T18:16:57.598Z,19.29
2023-09-27T18:20:01.409Z,19.38
2023-09-27T18:23:04.554Z,19.32
2023-09-27T18:26:07.032Z,19.23
2023-09-27T18:29:10.223Z,19.23
2023-09-27T18:32:12.927Z,19.17
2023-09-27T18:35:15.621Z,19.09
2023-09-27T18:38:18.372Z,19.01
2023-09-27T18:41:21.132Z,18.95
2023-09-27T18:44:24.251Z,18.84
2023-09-27T18:47:27.476Z,18.75
2023-09-27T18:50:30.623Z,18.67
2023-09-27T18:53:33.423Z,18.60
2023-09-27T18:56:36.273Z,18.49
2023-09-27T18:59:40.105Z,18.39
2023-09-27T19:02:43.218Z,18.18
2023-09-27T19:05:46.030Z,17.93
2023-09-27T19:08:49.076Z,17.75
2023-09-27T19:11:54.362Z,17.62
2023-09-27T19:14:57.189Z,17.55
2023-09-27T19:17:59.964Z,17.43
2023-09-27T19:21:02.539Z,17.34
2023-09-27T19:24:06.537Z,17.28
2023-09-27T19:27:09.298Z,17.18
2023-09-27T19:30:16.019Z,17.13
2023-09-27T19:33:18.533Z,17.06
2023-09-27T19:36:21.624Z,17.18
2023-09-27T19:39:24.066Z,17.16
2023-09-27T19:42:26.565Z,17.22
2023-09-27T19:45:29.056Z,17.29
2023-09-27T19:48:52.192Z,17.34
2023-09-27T19:51:55.318Z,17.35
2023-09-27T19:54:58.240Z,17.37
2023-09-27T19:58:01.504Z,17.35
2023-09-27T20:01:05.160Z,17.33
2023-09-27T20:04:07.958Z,17.30
2023-09-27T20:07:10.415Z,17.17
2023-09-27T20:10:12.971Z,17.20
2023-09-27T20:13:15.481Z,17.21
2023-09-27T20:16:17.979Z,17.18
2023-09-27T20:19:20.565Z,17.14
2023-09-27T20:22:23.056Z,17.00
2023-09-27T20:25:25.645Z,16.99
2023-09-27T20:28:28.152Z,16.99
2023-09-27T20:31:31.413Z,16.83
2023-09-27T20:34:33.907Z,16.87
2023-09-27T20:37:36.313Z,16.80
2023-09-27T20:40:38.998Z,16.78
2023-09-27T20:43:41.442Z,16.72
2023-09-27T20:46:43.961Z,16.69
2023-09-27T20:49:46.456Z,16.78
2023-09-27T20:52:48.953Z,16.83
2023-09-27T20:55:53.927Z,16.74
2023-09-27T20:58:56.397Z,16.74
2023-09-27T21:01:59.536Z,16.78
2023-09-27T21:05:02.081Z,16.69
2023-09-27T21:08:04.938Z,16.64
2023-09-27T21:11:07.528Z,16.47
2023-09-27T21:14:10.050Z,16.33
2023-09-27T21:17:12.592Z,16.49
2023-09-27T21:20:15.139Z,16.46
2023-09-27T21:23:17.539Z,16.42
2023-09-27T21:26:20.459Z,16.39
2023-09-27T21:29:22.914Z,16.31
2023-09-27T21:32:25.420Z,16.15
2023-09-27T21:35:27.956Z,16.14
2023-09-27T21:38:31.357Z,16.21
2023-09-27T21:41:33.778Z,16.14
2023-09-27T21:44:36.205Z,16.07
2023-09-27T21:47:38.564Z,15.95
2023-09-27T21:50:40.901Z,15.97
2023-09-27T21:53:43.837Z,16.01
2023-09-27T21:56:46.295Z,15.99
2023-09-27T21:59:48.735Z,15.78
2023-09-27T22:02:51.275Z,15.90
2023-09-27T22:05:53.735Z,15.81
2023-09-27T22:08:58.294Z,15.79
2023-09-27T22:12:00.738Z,15.85
2023-09-27T22:15:07.174Z,15.81
2023-09-27T22:18:11.510Z,15.67
2023-09-27T22:21:19.647Z,15.66
2023-09-27T22:24:25.512Z,15.63
2023-09-27T22:27:28.076Z,15.62
2023-09-27T22:30:31.537Z,15.54
2023-09-27T22:33:35.522Z,15.48
2023-09-27T22:36:52.043Z,15.48
2023-09-27T22:40:08.396Z,15.46
2023-09-27T22:43:17.419Z,15.54
2023-09-27T22:46:21.311Z,15.48
2023-09-27T22:49:24.622Z,15.47
2023-09-27T22:52:27.137Z,15.50
2023-09-27T22:55:29.614Z,15.39
2023-09-27T22:58:33.972Z,15.35
2023-09-27T23:01:37.040Z,15.42
2023-09-27T23:04:41.300Z,15.47
2023-09-27T23:07:43.929Z,15.51
2023-09-27T23:10:48.963Z,15.58
2023-09-27T23:14:05.914Z,15.50
2023-09-27T23:17:29.024Z,15.51
2023-09-27T23:20:32.412Z,15.37
2023-09-27T23:23:37.919Z,15.41
2023-09-27T23:26:52.720Z,15.33
2023-09-27T23:29:57.144Z,15.31
2023-09-27T23:33:01.454Z,15.27
2023-09-27T23:36:04.620Z,15.25
2023-09-27T23:39:18.153Z,15.14
2023-09-27T23:42:24.512Z,15.10
2023-09-27T23:45:27.054Z,15.03
2023-09-27T23:48:29.429Z,14.90
2023-09-27T23:51:33.626Z,14.85
2023-09-27T23:54:36.056Z,14.93
2023-09-27T23:57:41.031Z,14.88
